Time;durP1;ratioP1;P1;durP2;ratioP2;P2;SDS_P1;SDS_P2;PMS_P1;PMS_P2;Temp;Humidity;BMP_temperature;BMP_pressure;BME280_temperature;BME280_humidity;BME280_pressure;Samples;Min_cycle;Max_cycle;Signal;HPM_P1;HPM_P2
2022/01/28 00:01:38;;;;;;;20.60;8.07;;;;;;;;;;4999917;28;20144;-53
2022/01/28 00:04:12;;;;;;;23.35;7.80;;;;;;;;;;5001020;28;20549;-54
2022/01/28 00:06:38;;;;;;;27.88;7.97;;;;;;;;;;5002658;28;20037;-52
2022/01/28 00:09:03;;;;;;;37.35;9.10;;;;;;;;;;5001011;28;20689;-54
2022/01/28 00:11:29;;;;;;;23.50;7.40;;;;;;;;;;5000051;28;20464;-53
2022/01/28 00:14:06;;;;;;;21.30;7.35;;;;;;;;;;5001029;28;20042;-53
2022/01/28 00:17:10;;;;;;;21.75;7.88;;;;;;;;;;4999847;28;20044;-53
2022/01/28 00:38:26;;;;;;;37.45;11.25;;;;;;;;;;4998885;28;20425;-54
2022/01/28 00:40:52;;;;;;;33.15;11.65;;;;;;;;;;5001283;28;20069;-53
2022/01/28 00:43:17;;;;;;;41.92;11.05;;;;;;;;;;5000578;28;20104;-53
2022/01/28 00:45:43;;;;;;;27.85;11.38;;;;;;;;;;4999809;28;20052;-52
2022/01/28 00:48:08;;;;;;;37.15;11.48;;;;;;;;;;4999146;28;20650;-52
2022/01/28 00:50:34;;;;;;;36.97;10.70;;;;;;;;;;4996906;28;20120;-53
2022/01/28 00:52:59;;;;;;;26.17;9.98;;;;;;;;;;5001127;28;20061;-51
2022/01/28 00:55:25;;;;;;;34.40;10.02;;;;;;;;;;5004661;28;20465;-54
2022/01/28 00:57:50;;;;;;;22.35;8.95;;;;;;;;;;4996314;28;20056;-53
2022/01/28 01:00:16;;;;;;;35.95;9.30;;;;;;;;;;4976144;28;20397;-52
2022/01/28 01:02:42;;;;;;;33.10;10.20;;;;;;;;;;4999036;28;20109;-52
2022/01/28 01:05:08;;;;;;;36.13;10.85;;;;;;;;;;5000082;28;20124;-53
2022/01/28 01:07:34;;;;;;;57.65;12.27;;;;;;;;;;4997418;28;20092;-52
2022/01/28 01:09:59;;;;;;;28.45;10.13;;;;;;;;;;4997736;28;20026;-54
2022/01/28 01:12:27;;;;;;;30.60;8.68;;;;;;;;;;4999998;28;20038;-52
2022/01/28 01:14:53;;;;;;;31.90;9.50;;;;;;;;;;5000724;28;20034;-53
2022/01/28 01:17:28;;;;;;;29.17;8.07;;;;;;;;;;4998699;28;20057;-52
2022/01/28 01:20:07;;;;;;;20.73;5.97;;;;;;;;;;4999257;28;20033;-52
2022/01/28 01:22:38;;;;;;;26.92;6.25;;;;;;;;;;5000999;28;20425;-52
2022/01/28 01:25:14;;;;;;;22.00;7.15;;;;;;;;;;5004740;28;20037;-53
2022/01/28 01:27:39;;;;;;;21.83;7.28;;;;;;;;;;5004373;28;20704;-53
2022/01/28 01:30:05;;;;;;;21.50;5.75;;;;;;;;;;5003807;28;20376;-51
2022/01/28 01:32:31;;;;;;;20.45;4.80;;;;;;;;;;4984100;28;20038;-51
2022/01/28 01:34:56;;;;;;;18.23;5.40;;;;;;;;;;4983918;28;20030;-52
2022/01/28 01:37:21;;;;;;;20.20;6.05;;;;;;;;;;5004871;28;20030;-53
2022/01/28 01:39:47;;;;;;;20.25;6.15;;;;;;;;;;5004182;28;20087;-53
2022/01/28 01:42:25;;;;;;;18.80;4.97;;;;;;;;;;4998724;28;20487;-53
2022/01/28 01:53:11;;;;;;;20.20;4.53;;;;;;;;;;4983891;28;20404;-53
2022/01/28 01:55:37;;;;;;;25.08;5.05;;;;;;;;;;4999191;28;20034;-51
2022/01/28 01:58:03;;;;;;;22.10;4.32;;;;;;;;;;5007129;28;20041;-52
2022/01/28 02:00:28;;;;;;;23.85;5.32;;;;;;;;;;5003617;28;20089;-50
2022/01/28 02:02:54;;;;;;;13.95;4.88;;;;;;;;;;5005394;28;20042;-53
2022/01/28 02:05:19;;;;;;;24.42;3.78;;;;;;;;;;5007279;28;20173;-53
2022/01/28 02:07:45;;;;;;;18.55;3.35;;;;;;;;;;5001673;28;20045;-53
2022/01/28 02:10:12;;;;;;;18.77;3.75;;;;;;;;;;4998221;28;20453;-53
2022/01/28 02:12:51;;;;;;;20.02;3.97;;;;;;;;;;5003748;28;20062;-54
2022/01/28 02:15:18;;;;;;;17.27;3.63;;;;;;;;;;5001289;28;22663;-53
2022/01/28 02:17:44;;;;;;;15.68;3.63;;;;;;;;;;4996678;28;20087;-53
2022/01/28 02:20:25;;;;;;;11.57;3.22;;;;;;;;;;5005339;28;20493;-53
2022/01/28 02:22:53;;;;;;;15.93;3.67;;;;;;;;;;4999220;28;20037;-53
2022/01/28 02:25:24;;;;;;;18.83;3.03;;;;;;;;;;4997548;28;20054;-53
2022/01/28 02:27:50;;;;;;;10.70;3.33;;;;;;;;;;4998763;28;20033;-53
2022/01/28 02:30:16;;;;;;;13.45;3.05;;;;;;;;;;5001086;28;20668;-52
2022/01/28 02:32:43;;;;;;;12.23;3.22;;;;;;;;;;5004388;28;20104;-53
2022/01/28 02:35:09;;;;;;;8.68;2.38;;;;;;;;;;5000919;28;20133;-53
2022/01/28 02:37:34;;;;;;;13.80;2.95;;;;;;;;;;5004377;28;20109;-52
2022/01/28 02:40:00;;;;;;;8.75;2.65;;;;;;;;;;5002354;28;20174;-53
2022/01/28 02:42:43;;;;;;;14.10;2.42;;;;;;;;;;5003721;28;20307;-54
2022/01/28 02:45:09;;;;;;;12.15;2.53;;;;;;;;;;5001963;28;20037;-53
2022/01/28 02:47:38;;;;;;;10.00;3.03;;;;;;;;;;5001388;28;20023;-53
2022/01/28 02:50:07;;;;;;;10.27;2.83;;;;;;;;;;5000686;28;20034;-52
2022/01/28 02:52:43;;;;;;;5.85;2.55;;;;;;;;;;4999321;28;20029;-51
2022/01/28 02:55:11;;;;;;;9.20;2.35;;;;;;;;;;5005601;28;20034;-52
2022/01/28 02:57:43;;;;;;;18.17;2.95;;;;;;;;;;5002609;28;20034;-52
2022/01/28 03:00:09;;;;;;;17.47;2.70;;;;;;;;;;5005746;28;20084;-54
2022/01/28 03:02:34;;;;;;;16.80;4.60;;;;;;;;;;5002220;28;20275;-51
2022/01/28 03:07:26;;;;;;;16.92;2.55;;;;;;;;;;5003746;28;20100;-51
2022/01/28 03:12:37;;;;;;;6.30;1.77;;;;;;;;;;4998012;28;20045;-51
2022/01/28 03:15:06;;;;;;;5.53;1.98;;;;;;;;;;5000433;28;20046;-52
2022/01/28 03:20:15;;;;;;;4.28;1.63;;;;;;;;;;5004560;28;20091;-53
2022/01/28 03:22:41;;;;;;;6.25;2.47;;;;;;;;;;4999432;28;20056;-53
2022/01/28 03:25:07;;;;;;;6.88;2.10;;;;;;;;;;5003181;28;20030;-51
2022/01/28 03:27:50;;;;;;;7.88;2.00;;;;;;;;;;5002670;28;20478;-52
2022/01/28 03:30:16;;;;;;;6.97;2.15;;;;;;;;;;4999637;28;20034;-51
2022/01/28 03:32:41;;;;;;;12.07;2.22;;;;;;;;;;5002710;28;20041;-53
2022/01/28 03:35:09;;;;;;;8.90;2.15;;;;;;;;;;5003030;28;20654;-52
2022/01/28 03:37:35;;;;;;;10.95;1.98;;;;;;;;;;4998692;28;20099;-51
2022/01/28 03:40:01;;;;;;;10.10;2.60;;;;;;;;;;4999830;28;20046;-50
2022/01/28 03:42:27;;;;;;;6.47;2.20;;;;;;;;;;5002768;28;20021;-51
2022/01/28 03:44:53;;;;;;;9.00;2.10;;;;;;;;;;5002214;28;20503;-51
2022/01/28 03:47:18;;;;;;;10.27;3.05;;;;;;;;;;4999697;28;20064;-53
2022/01/28 03:49:44;;;;;;;5.22;2.42;;;;;;;;;;5006601;28;20029;-53
2022/01/28 03:52:09;;;;;;;10.13;2.42;;;;;;;;;;5002915;28;20151;-52
2022/01/28 03:54:35;;;;;;;8.00;2.55;;;;;;;;;;5001467;28;20045;-52
2022/01/28 03:57:00;;;;;;;6.57;2.20;;;;;;;;;;4999703;28;20042;-53
2022/01/28 03:59:26;;;;;;;8.25;2.20;;;;;;;;;;5002270;28;20052;-53
2022/01/28 04:01:51;;;;;;;6.43;2.17;;;;;;;;;;4985407;28;20563;-54
2022/01/28 04:12:25;;;;;;;9.13;2.55;;;;;;;;;;5000430;28;20164;-50
2022/01/28 04:17:25;;;;;;;5.75;1.90;;;;;;;;;;5000107;28;20145;-53
2022/01/28 04:19:51;;;;;;;9.90;2.40;;;;;;;;;;5002130;28;20481;-52
2022/01/28 04:22:18;;;;;;;14.90;2.58;;;;;;;;;;4999029;28;20484;-52
2022/01/28 04:24:44;;;;;;;7.88;2.28;;;;;;;;;;5001322;28;20198;-53
2022/01/28 04:27:10;;;;;;;8.10;2.42;;;;;;;;;;5001858;28;20125;-51
2022/01/28 04:29:35;;;;;;;6.97;1.85;;;;;;;;;;4997595;28;20029;-53
2022/01/28 04:32:01;;;;;;;4.90;2.17;;;;;;;;;;4998338;28;20030;-53
2022/01/28 04:34:27;;;;;;;7.07;2.08;;;;;;;;;;4978902;28;20026;-53
2022/01/28 04:39:33;;;;;;;5.30;2.30;;;;;;;;;;5001683;28;20207;-53
2022/01/28 04:45:13;;;;;;;4.97;2.00;;;;;;;;;;4985543;28;20085;-52
2022/01/28 04:47:49;;;;;;;5.78;2.40;;;;;;;;;;4999793;28;20029;-53
2022/01/28 04:55:23;;;;;;;11.20;2.45;;;;;;;;;;4999650;28;20061;-54
2022/01/28 05:26:33;;;;;;;10.50;1.73;;;;;;;;;;4999807;28;20509;-55
2022/01/28 05:28:59;;;;;;;;;;;;;;;;;;4998417;28;20077;-55
2022/01/28 05:31:25;;;;;;;7.05;1.35;;;;;;;;;;5002090;28;19949;-53
2022/01/28 05:33:50;;;;;;;7.88;1.55;;;;;;;;;;4999232;28;20042;-54
2022/01/28 05:36:16;;;;;;;3.30;1.58;;;;;;;;;;4997825;28;20030;-54
2022/01/28 05:38:42;;;;;;;9.80;1.77;;;;;;;;;;5000295;28;20091;-54
2022/01/28 05:41:07;;;;;;;9.30;1.88;;;;;;;;;;4999217;28;20377;-54
2022/01/28 05:43:33;;;;;;;7.05;2.20;;;;;;;;;;4983879;28;20044;-54
2022/01/28 05:45:58;;;;;;;5.10;1.42;;;;;;;;;;4982489;28;20037;-55
2022/01/28 05:48:24;;;;;;;8.23;1.70;;;;;;;;;;4998909;28;20044;-54
2022/01/28 05:50:50;;;;;;;5.68;2.08;;;;;;;;;;5000206;28;20037;-53
2022/01/28 05:53:15;;;;;;;8.35;1.70;;;;;;;;;;4999069;28;20631;-55
2022/01/28 05:55:41;;;;;;;6.40;1.95;;;;;;;;;;5000929;28;20041;-54
2022/01/28 05:58:07;;;;;;;4.50;1.98;;;;;;;;;;5001005;28;20527;-54
2022/01/28 06:00:33;;;;;;;6.80;1.92;;;;;;;;;;5000530;28;20629;-54
2022/01/28 06:02:58;;;;;;;7.25;2.00;;;;;;;;;;4999039;28;20037;-55
2022/01/28 06:05:29;;;;;;;9.43;1.63;;;;;;;;;;4999840;28;20084;-55
2022/01/28 06:07:55;;;;;;;4.35;1.38;;;;;;;;;;4998733;28;20120;-53
2022/01/28 06:10:21;;;;;;;10.85;2.47;;;;;;;;;;5001990;28;20026;-54
2022/01/28 06:12:49;;;;;;;7.18;2.35;;;;;;;;;;5002700;28;20061;-54
2022/01/28 06:15:15;;;;;;;10.82;2.42;;;;;;;;;;5001905;28;20025;-53
2022/01/28 06:17:41;;;;;;;9.43;2.15;;;;;;;;;;5003627;28;20506;-53
2022/01/28 06:20:09;;;;;;;5.75;1.67;;;;;;;;;;5000677;28;20501;-54
2022/01/28 06:22:42;;;;;;;7.82;1.83;;;;;;;;;;5002769;28;20065;-51
2022/01/28 06:25:09;;;;;;;4.85;1.63;;;;;;;;;;5002624;28;20550;-54
2022/01/28 06:27:35;;;;;;;7.18;2.03;;;;;;;;;;5004005;28;20030;-53
2022/01/28 06:30:04;;;;;;;7.10;2.03;;;;;;;;;;4982511;28;20030;-54
2022/01/28 06:32:32;;;;;;;10.35;2.45;;;;;;;;;;5003589;28;20069;-53
2022/01/28 06:35:07;;;;;;;5.65;2.10;;;;;;;;;;5001582;28;20436;-52
2022/01/28 06:37:33;;;;;;;8.50;2.40;;;;;;;;;;5002016;28;20069;-53
2022/01/28 06:39:59;;;;;;;5.15;1.95;;;;;;;;;;5003796;28;20045;-53
2022/01/28 06:42:24;;;;;;;6.13;2.97;;;;;;;;;;5000961;28;20457;-54
2022/01/28 06:44:50;;;;;;;16.15;2.42;;;;;;;;;;5001229;28;20034;-53
2022/01/28 06:47:15;;;;;;;6.72;2.30;;;;;;;;;;5002435;28;20559;-53
2022/01/28 06:49:41;;;;;;;8.88;3.60;;;;;;;;;;5003731;28;22715;-51
2022/01/28 06:52:07;;;;;;;4.25;1.65;;;;;;;;;;4987233;28;20032;-53
2022/01/28 06:54:33;;;;;;;11.02;3.20;;;;;;;;;;5001350;28;20297;-54
2022/01/28 06:56:58;;;;;;;6.85;2.47;;;;;;;;;;5000496;28;20062;-56
2022/01/28 06:59:24;;;;;;;12.65;3.03;;;;;;;;;;5001909;28;20097;-54
2022/01/28 07:01:49;;;;;;;10.30;2.88;;;;;;;;;;5000467;28;20053;-55
2022/01/28 07:04:15;;;;;;;10.05;2.90;;;;;;;;;;5000862;28;20115;-54
2022/01/28 07:06:41;;;;;;;10.40;3.03;;;;;;;;;;4986365;28;20076;-55
2022/01/28 07:09:07;;;;;;;13.48;2.85;;;;;;;;;;5000227;28;20116;-54
2022/01/28 07:11:33;;;;;;;11.82;2.85;;;;;;;;;;4999608;28;20044;-54
2022/01/28 07:13:59;;;;;;;13.93;2.42;;;;;;;;;;4998015;28;21026;-53
2022/01/28 07:16:24;;;;;;;10.10;2.60;;;;;;;;;;4998723;28;20057;-55
2022/01/28 07:18:50;;;;;;;9.95;2.65;;;;;;;;;;5002736;28;20128;-55
2022/01/28 07:21:16;;;;;;;8.88;1.75;;;;;;;;;;5001589;28;20037;-53
2022/01/28 07:23:42;;;;;;;6.15;1.60;;;;;;;;;;4998650;28;20030;-54
2022/01/28 07:26:07;;;;;;;6.03;1.80;;;;;;;;;;5000124;28;20053;-54
2022/01/28 07:28:34;;;;;;;8.38;2.47;;;;;;;;;;5003281;28;20034;-55
2022/01/28 07:31:00;;;;;;;9.63;2.40;;;;;;;;;;4997552;28;20041;-54
2022/01/28 07:33:26;;;;;;;10.00;2.67;;;;;;;;;;5003100;28;20516;-54
2022/01/28 07:35:51;;;;;;;11.13;4.03;;;;;;;;;;5001111;28;20174;-54
2022/01/28 07:38:17;;;;;;;8.75;2.65;;;;;;;;;;5000609;28;20034;-54
2022/01/28 07:40:42;;;;;;;10.40;2.38;;;;;;;;;;5000528;28;20398;-54
2022/01/28 07:43:07;;;;;;;11.48;3.35;;;;;;;;;;4999320;28;20033;-53
2022/01/28 07:45:33;;;;;;;8.73;3.05;;;;;;;;;;5001073;28;20492;-55
2022/01/28 07:47:58;;;;;;;9.02;2.13;;;;;;;;;;4999720;28;20045;-53
2022/01/28 07:50:24;;;;;;;8.82;2.67;;;;;;;;;;4999987;28;20033;-54
2022/01/28 07:52:49;;;;;;;7.32;2.83;;;;;;;;;;5000746;28;20485;-53
2022/01/28 07:55:15;;;;;;;7.90;2.72;;;;;;;;;;4998927;28;20034;-54
2022/01/28 07:57:42;;;;;;;7.68;2.65;;;;;;;;;;5001099;28;20040;-54
2022/01/28 08:00:09;;;;;;;8.38;2.50;;;;;;;;;;4998241;28;20030;-54
2022/01/28 08:02:35;;;;;;;7.65;2.72;;;;;;;;;;4999353;28;20045;-52
2022/01/28 08:05:01;;;;;;;8.30;2.80;;;;;;;;;;5001108;28;20090;-53
2022/01/28 08:07:27;;;;;;;7.75;2.70;;;;;;;;;;4979859;28;20389;-54
2022/01/28 08:09:52;;;;;;;7.20;2.60;;;;;;;;;;4998072;28;20034;-53
2022/01/28 08:12:18;;;;;;;10.82;2.83;;;;;;;;;;4987632;28;20099;-52
2022/01/28 08:14:43;;;;;;;10.27;3.13;;;;;;;;;;4999399;28;20037;-53
2022/01/28 08:17:11;;;;;;;7.47;2.63;;;;;;;;;;5001350;28;20033;-52
2022/01/28 08:19:37;;;;;;;11.30;2.85;;;;;;;;;;5002911;28;20057;-54
2022/01/28 08:22:02;;;;;;;12.82;3.33;;;;;;;;;;4997860;28;20057;-53
2022/01/28 08:24:28;;;;;;;14.27;2.90;;;;;;;;;;5007492;28;20038;-54
2022/01/28 08:26:53;;;;;;;16.85;2.88;;;;;;;;;;5001818;28;20400;-53
2022/01/28 08:29:19;;;;;;;11.00;4.07;;;;;;;;;;5002666;28;20029;-53
2022/01/28 08:31:44;;;;;;;9.00;2.47;;;;;;;;;;5001222;28;20034;-54
2022/01/28 08:34:10;;;;;;;5.45;1.90;;;;;;;;;;4997806;28;20037;-53
2022/01/28 08:36:35;;;;;;;8.38;2.20;;;;;;;;;;5000772;28;20121;-53
2022/01/28 08:39:04;;;;;;;12.18;3.08;;;;;;;;;;4998534;28;20496;-53
2022/01/28 08:41:31;;;;;;;7.60;3.05;;;;;;;;;;5000079;28;20428;-56
2022/01/28 08:43:57;;;;;;;9.27;3.15;;;;;;;;;;4999988;28;20049;-54
2022/01/28 08:46:22;;;;;;;10.13;3.45;;;;;;;;;;5004116;28;20061;-54
2022/01/28 08:48:48;;;;;;;12.45;3.20;;;;;;;;;;5004682;28;20535;-56
2022/01/28 08:51:13;;;;;;;12.32;3.88;;;;;;;;;;5000705;28;20424;-55
2022/01/28 08:53:39;;;;;;;14.10;3.45;;;;;;;;;;5000031;28;20382;-54
2022/01/28 08:56:05;;;;;;;9.50;3.10;;;;;;;;;;5000183;28;20037;-55
2022/01/28 08:58:31;;;;;;;11.35;3.47;;;;;;;;;;5003003;28;20533;-55
2022/01/28 09:00:56;;;;;;;12.35;3.70;;;;;;;;;;5001173;28;20037;-55
2022/01/28 09:03:22;;;;;;;16.13;4.32;;;;;;;;;;5003499;28;20057;-55
2022/01/28 09:05:48;;;;;;;11.02;3.67;;;;;;;;;;5001906;28;20034;-55
2022/01/28 09:08:14;;;;;;;13.80;4.53;;;;;;;;;;5001024;28;20032;-55
2022/01/28 09:10:44;;;;;;;13.48;3.58;;;;;;;;;;5001169;28;20032;-54
2022/01/28 09:13:21;;;;;;;10.75;3.17;;;;;;;;;;5001707;28;20115;-55
2022/01/28 09:15:47;;;;;;;14.23;3.20;;;;;;;;;;5000173;28;20022;-55
2022/01/28 09:18:14;;;;;;;11.52;2.83;;;;;;;;;;4998636;28;20096;-56
2022/01/28 09:20:40;;;;;;;12.00;3.03;;;;;;;;;;5001502;28;20034;-55
2022/01/28 09:23:06;;;;;;;10.02;3.33;;;;;;;;;;4993949;28;20030;-56
2022/01/28 09:25:34;;;;;;;13.65;3.88;;;;;;;;;;5001819;28;20029;-55
2022/01/28 09:28:01;;;;;;;9.98;3.47;;;;;;;;;;4994930;28;20555;-56
2022/01/28 09:30:26;;;;;;;9.55;2.30;;;;;;;;;;4999150;28;20254;-56
2022/01/28 09:32:53;;;;;;;10.30;3.40;;;;;;;;;;4997199;28;20034;-56
2022/01/28 09:35:19;;;;;;;14.57;3.20;;;;;;;;;;4994562;28;20064;-56
2022/01/28 09:37:44;;;;;;;10.60;2.38;;;;;;;;;;4985233;28;20046;-56
2022/01/28 09:40:11;;;;;;;11.25;3.17;;;;;;;;;;5001872;28;20034;-55
2022/01/28 09:42:41;;;;;;;8.43;2.90;;;;;;;;;;4998834;28;20037;-54
2022/01/28 09:45:09;;;;;;;8.10;2.33;;;;;;;;;;5000041;28;20080;-55
2022/01/28 09:47:35;;;;;;;24.15;3.47;;;;;;;;;;5002254;28;20513;-50
2022/01/28 09:50:03;;;;;;;9.98;3.15;;;;;;;;;;4985090;28;20363;-53
2022/01/28 09:52:28;;;;;;;5.85;1.58;;;;;;;;;;4987615;28;20169;-50
2022/01/28 09:54:54;;;;;;;12.30;2.47;;;;;;;;;;5005767;28;20063;-55
2022/01/28 09:57:20;;;;;;;7.05;1.90;;;;;;;;;;5003359;28;20127;-54
2022/01/28 09:59:46;;;;;;;7.57;2.05;;;;;;;;;;5000608;28;20485;-53
2022/01/28 10:02:12;;;;;;;7.18;1.98;;;;;;;;;;5006410;28;20217;-53
2022/01/28 10:04:37;;;;;;;8.55;1.92;;;;;;;;;;5004023;28;20281;-54
2022/01/28 10:07:16;;;;;;;6.97;1.88;;;;;;;;;;5004645;28;20132;-54
2022/01/28 10:09:57;;;;;;;4.75;1.45;;;;;;;;;;5002210;28;20065;-53
2022/01/28 10:12:50;;;;;;;4.97;1.60;;;;;;;;;;5003043;28;20528;-55
2022/01/28 10:15:28;;;;;;;5.80;1.70;;;;;;;;;;5001674;28;21010;-54
2022/01/28 10:17:57;;;;;;;5.45;1.50;;;;;;;;;;5000998;28;20575;-51
2022/01/28 10:20:25;;;;;;;7.72;1.83;;;;;;;;;;5004623;28;20791;-55
2022/01/28 10:22:57;;;;;;;2.17;1.10;;;;;;;;;;5000641;28;20034;-55
2022/01/28 10:25:27;;;;;;;;;;;;;;;;;;5001052;28;20038;-55
2022/01/28 10:28:03;;;;;;;4.88;1.77;;;;;;;;;;4997256;28;20435;-54
2022/01/28 10:30:30;;;;;;;7.03;2.40;;;;;;;;;;5002929;28;20057;-53
2022/01/28 10:33:16;;;;;;;7.15;2.65;;;;;;;;;;5000786;28;20620;-55
2022/01/28 10:35:58;;;;;;;5.60;1.70;;;;;;;;;;5000125;28;20021;-55
2022/01/28 10:38:37;;;;;;;8.35;2.47;;;;;;;;;;4999680;28;20041;-55
2022/01/28 10:41:21;;;;;;;6.13;2.05;;;;;;;;;;5001001;28;20033;-50
2022/01/28 10:43:47;;;;;;;6.85;2.00;;;;;;;;;;4998565;28;20049;-52
2022/01/28 10:46:20;;;;;;;6.13;1.45;;;;;;;;;;5002431;28;20559;-54
2022/01/28 10:48:52;;;;;;;4.60;1.23;;;;;;;;;;5002932;28;20116;-52
2022/01/28 10:51:19;;;;;;;5.18;1.77;;;;;;;;;;5001643;28;20025;-55
2022/01/28 10:54:14;;;;;;;4.18;1.48;;;;;;;;;;5002890;28;20030;-55
2022/01/28 10:56:55;;;;;;;12.18;1.73;;;;;;;;;;5002577;28;20057;-54
2022/01/28 10:59:41;;;;;;;4.95;1.27;;;;;;;;;;4999141;28;20041;-54
2022/01/28 11:02:07;;;;;;;4.45;0.95;;;;;;;;;;5000468;28;20045;-55
2022/01/28 11:04:33;;;;;;;5.10;1.00;;;;;;;;;;5003886;28;20120;-55
2022/01/28 11:07:00;;;;;;;2.72;1.10;;;;;;;;;;5002119;28;20120;-55
2022/01/28 11:09:26;;;;;;;3.65;1.02;;;;;;;;;;5000515;28;20026;-53
2022/01/28 11:11:53;;;;;;;4.63;1.02;;;;;;;;;;5003902;28;20377;-54
2022/01/28 11:14:20;;;;;;;7.13;0.80;;;;;;;;;;5001988;28;20791;-52
2022/01/28 11:16:46;;;;;;;3.05;0.95;;;;;;;;;;4991703;28;20040;-56
2022/01/28 11:19:16;;;;;;;4.57;1.60;;;;;;;;;;4985845;28;20028;-53
2022/01/28 11:22:13;;;;;;;4.65;1.75;;;;;;;;;;4999562;28;20440;-54
2022/01/28 11:25:05;;;;;;;19.80;1.92;;;;;;;;;;5003018;28;20054;-55
2022/01/28 11:27:35;;;;;;;3.83;0.88;;;;;;;;;;4981943;28;20038;-54
2022/01/28 11:30:16;;;;;;;2.35;1.02;;;;;;;;;;4993850;28;20293;-55
2022/01/28 11:33:08;;;;;;;3.75;0.80;;;;;;;;;;5002895;28;20992;-53
2022/01/28 11:36:00;;;;;;;10.80;1.25;;;;;;;;;;5002835;28;20033;-55
2022/01/28 11:38:30;;;;;;;4.60;1.20;;;;;;;;;;5003204;28;20025;-56
2022/01/28 11:40:56;;;;;;;6.13;0.80;;;;;;;;;;5003668;28;20116;-54
2022/01/28 11:43:23;;;;;;;3.88;1.30;;;;;;;;;;4998974;28;20161;-54
2022/01/28 11:46:07;;;;;;;9.57;0.98;;;;;;;;;;5001062;28;20201;-55
2022/01/28 11:48:51;;;;;;;2.47;0.73;;;;;;;;;;5000432;28;20071;-55
2022/01/28 11:51:21;;;;;;;4.45;1.45;;;;;;;;;;4998977;28;20023;-56
2022/01/28 11:53:58;;;;;;;2.83;1.45;;;;;;;;;;4996412;28;20022;-56
2022/01/28 11:56:25;;;;;;;5.50;1.25;;;;;;;;;;5003391;28;20034;-56
2022/01/28 11:59:01;;;;;;;4.63;1.20;;;;;;;;;;5000911;28;20045;-53
2022/01/28 12:01:49;;;;;;;4.28;1.35;;;;;;;;;;4998320;28;20030;-56
2022/01/28 12:04:35;;;;;;;4.05;1.70;;;;;;;;;;4987878;28;20089;-56
2022/01/28 12:07:10;;;;;;;4.70;1.30;;;;;;;;;;4996199;28;20124;-57
2022/01/28 12:09:38;;;;;;;3.05;1.63;;;;;;;;;;4992967;28;20030;-55
2022/01/28 12:12:09;;;;;;;4.97;1.60;;;;;;;;;;5000688;28;20496;-56
2022/01/28 12:14:50;;;;;;;5.82;1.90;;;;;;;;;;5003918;28;20057;-55
2022/01/28 12:17:31;;;;;;;3.95;0.95;;;;;;;;;;5001581;28;20037;-55
2022/01/28 12:20:15;;;;;;;3.40;1.10;;;;;;;;;;5002313;28;20121;-56
2022/01/28 12:22:59;;;;;;;5.30;1.40;;;;;;;;;;4998484;28;20080;-55
2022/01/28 12:25:43;;;;;;;2.85;1.20;;;;;;;;;;4999899;28;20026;-56
2022/01/28 12:28:26;;;;;;;4.90;1.42;;;;;;;;;;4995890;28;20034;-55
2022/01/28 12:31:12;;;;;;;4.43;1.48;;;;;;;;;;5001814;28;20485;-54
2022/01/28 12:33:43;;;;;;;4.13;1.20;;;;;;;;;;5003461;28;20037;-55
2022/01/28 12:36:12;;;;;;;2.20;0.93;;;;;;;;;;5000149;28;20108;-56
2022/01/28 12:38:43;;;;;;;2.45;0.90;;;;;;;;;;5000244;28;20404;-53
2022/01/28 12:41:10;;;;;;;2.43;1.03;;;;;;;;;;5000476;28;20061;-55
2022/01/28 12:43:39;;;;;;;2.55;0.85;;;;;;;;;;5001525;28;20145;-56
2022/01/28 12:46:09;;;;;;;3.13;0.82;;;;;;;;;;5001921;28;20038;-53
2022/01/28 12:48:35;;;;;;;4.65;0.93;;;;;;;;;;5004873;28;20579;-51
2022/01/28 12:51:03;;;;;;;1.95;0.68;;;;;;;;;;5001840;28;20088;-57
2022/01/28 12:53:40;;;;;;;3.55;1.30;;;;;;;;;;4996555;28;20061;-57
2022/01/28 12:56:07;;;;;;;3.00;1.10;;;;;;;;;;4997728;28;20030;-53
2022/01/28 12:58:38;;;;;;;2.25;0.60;;;;;;;;;;5001870;28;20433;-56
2022/01/28 13:01:13;;;;;;;2.40;0.88;;;;;;;;;;4998073;28;20030;-56
2022/01/28 13:03:57;;;;;;;1.77;0.70;;;;;;;;;;5000677;28;20145;-56
2022/01/28 13:08:55;;;;;;;2.70;0.75;;;;;;;;;;5001933;28;20167;-54
2022/01/28 13:11:23;;;;;;;1.73;0.90;;;;;;;;;;4999739;28;20025;-55
2022/01/28 13:13:54;;;;;;;1.33;0.55;;;;;;;;;;5000156;28;20146;-56
2022/01/28 13:16:49;;;;;;;3.63;0.82;;;;;;;;;;5001769;28;20018;-55
2022/01/28 13:19:16;;;;;;;3.90;0.68;;;;;;;;;;4979763;28;20037;-57
2022/01/28 13:21:43;;;;;;;2.03;1.02;;;;;;;;;;4998525;28;20034;-56
2022/01/28 13:24:23;;;;;;;1.08;0.45;;;;;;;;;;5001290;28;20125;-56
2022/01/28 13:26:59;;;;;;;1.63;0.43;;;;;;;;;;5001526;28;20310;-55
2022/01/28 13:29:45;;;;;;;3.10;0.70;;;;;;;;;;4999157;28;20032;-55
2022/01/28 13:32:14;;;;;;;6.18;0.90;;;;;;;;;;4999539;28;20038;-56
2022/01/28 13:34:46;;;;;;;2.95;0.85;;;;;;;;;;5000009;28;20030;-56
2022/01/28 13:37:12;;;;;;;3.40;0.80;;;;;;;;;;4999419;28;20037;-54
2022/01/28 13:39:43;;;;;;;2.50;0.95;;;;;;;;;;5002003;28;20042;-57
2022/01/28 13:42:12;;;;;;;2.70;0.98;;;;;;;;;;4982834;28;20041;-55
2022/01/28 13:44:41;;;;;;;3.40;1.10;;;;;;;;;;4986040;28;20029;-54
2022/01/28 13:47:09;;;;;;;1.85;0.77;;;;;;;;;;5001464;28;20038;-55
2022/01/28 13:49:37;;;;;;;4.07;0.98;;;;;;;;;;5000747;28;20033;-55
2022/01/28 13:52:17;;;;;;;7.68;0.90;;;;;;;;;;5000152;28;20176;-56
2022/01/28 13:54:44;;;;;;;3.17;0.70;;;;;;;;;;5000189;28;20116;-56
2022/01/28 13:57:10;;;;;;;1.83;0.93;;;;;;;;;;5001699;28;20512;-54
2022/01/28 13:59:38;;;;;;;3.35;0.80;;;;;;;;;;5002158;28;20052;-54
2022/01/28 14:02:10;;;;;;;3.38;1.17;;;;;;;;;;5003137;28;20464;-55
2022/01/28 14:04:42;;;;;;;2.25;0.93;;;;;;;;;;4998596;28;20037;-54
2022/01/28 14:07:21;;;;;;;2.13;0.55;;;;;;;;;;5000764;28;20033;-55
2022/01/28 14:09:56;;;;;;;2.45;0.90;;;;;;;;;;4998259;28;20315;-54
2022/01/28 14:12:52;;;;;;;2.28;0.70;;;;;;;;;;4999508;28;20120;-54
2022/01/28 14:15:42;;;;;;;1.75;0.73;;;;;;;;;;4999834;28;20061;-56
2022/01/28 14:18:07;;;;;;;1.20;0.70;;;;;;;;;;4997182;28;20026;-52
2022/01/28 14:20:35;;;;;;;3.20;0.80;;;;;;;;;;5000955;28;20515;-55
2022/01/28 14:23:01;;;;;;;1.63;0.70;;;;;;;;;;5001064;28;20045;-56
2022/01/28 14:25:26;;;;;;;3.65;0.70;;;;;;;;;;4998138;28;20035;-57
2022/01/28 14:28:24;;;;;;;1.40;0.43;;;;;;;;;;5000084;28;20041;-52
2022/01/28 14:30:55;;;;;;;3.35;0.95;;;;;;;;;;4986350;28;21031;-53
2022/01/28 14:33:21;;;;;;;1.50;0.60;;;;;;;;;;5004741;28;20243;-53
2022/01/28 14:35:46;;;;;;;2.60;0.63;;;;;;;;;;5000629;28;20037;-57
2022/01/28 14:38:12;;;;;;;2.03;0.70;;;;;;;;;;5005459;28;20452;-56
2022/01/28 14:40:37;;;;;;;2.05;1.00;;;;;;;;;;5006770;28;20074;-56
2022/01/28 14:43:03;;;;;;;0.80;0.50;;;;;;;;;;4999283;28;20417;-52
2022/01/28 14:45:30;;;;;;;6.00;0.80;;;;;;;;;;5000287;28;20033;-53
2022/01/28 14:47:55;;;;;;;1.63;0.70;;;;;;;;;;5007018;28;20544;-50
2022/01/28 14:50:21;;;;;;;3.90;0.80;;;;;;;;;;5006745;28;20061;-57
2022/01/28 14:52:47;;;;;;;2.50;0.85;;;;;;;;;;5004435;28;20045;-57
2022/01/28 14:55:12;;;;;;;1.90;0.60;;;;;;;;;;5006765;28;20034;-53
2022/01/28 14:57:38;;;;;;;1.95;0.70;;;;;;;;;;5002135;28;20058;-54
2022/01/28 15:00:06;;;;;;;1.73;0.45;;;;;;;;;;5003554;28;20030;-52
2022/01/28 15:02:31;;;;;;;1.73;0.70;;;;;;;;;;4997527;28;20267;-57
2022/01/28 15:04:59;;;;;;;1.65;0.35;;;;;;;;;;5011195;28;20425;-51
2022/01/28 15:07:28;;;;;;;2.40;0.63;;;;;;;;;;5004272;28;20485;-55
2022/01/28 15:09:59;;;;;;;5.30;0.50;;;;;;;;;;4996037;28;20511;-51
2022/01/28 15:12:25;;;;;;;2.67;0.75;;;;;;;;;;5003179;28;20532;-55
2022/01/28 15:14:51;;;;;;;5.60;1.42;;;;;;;;;;5003024;28;20112;-54
2022/01/28 15:17:18;;;;;;;5.80;1.20;;;;;;;;;;5003955;28;20037;-54
2022/01/28 15:19:44;;;;;;;2.67;1.23;;;;;;;;;;5000999;28;20038;-56
2022/01/28 15:22:10;;;;;;;3.97;1.48;;;;;;;;;;5005136;28;20489;-56
2022/01/28 15:24:36;;;;;;;6.75;1.80;;;;;;;;;;5003245;28;20037;-56
2022/01/28 15:27:02;;;;;;;13.45;1.42;;;;;;;;;;5006210;28;20025;-56
2022/01/28 15:37:12;;;;;;;3.83;1.70;;;;;;;;;;5003392;28;20420;-56
2022/01/28 15:39:37;;;;;;;2.42;1.30;;;;;;;;;;4976730;28;20303;-53
2022/01/28 15:42:06;;;;;;;3.38;1.55;;;;;;;;;;4999679;28;20025;-55
2022/01/28 15:44:32;;;;;;;3.50;1.15;;;;;;;;;;5000556;28;20030;-56
2022/01/28 15:46:57;;;;;;;3.50;1.30;;;;;;;;;;5004397;28;20034;-53
2022/01/28 15:49:23;;;;;;;2.78;0.90;;;;;;;;;;5002911;28;20037;-50
2022/01/28 15:51:49;;;;;;;4.10;1.45;;;;;;;;;;5001434;28;20042;-55
2022/01/28 15:54:15;;;;;;;2.50;1.20;;;;;;;;;;5001364;28;20027;-50
2022/01/28 15:56:41;;;;;;;4.70;1.35;;;;;;;;;;5001759;28;20026;-54
2022/01/28 15:59:07;;;;;;;6.78;1.80;;;;;;;;;;5004371;28;20032;-57
2022/01/28 16:01:32;;;;;;;6.57;2.20;;;;;;;;;;5001596;28;20684;-56
2022/01/28 16:03:58;;;;;;;8.32;1.80;;;;;;;;;;5002431;28;20036;-55
2022/01/28 16:06:24;;;;;;;5.13;1.95;;;;;;;;;;5002111;28;20084;-55
2022/01/28 16:08:51;;;;;;;8.38;1.77;;;;;;;;;;5001055;28;20037;-56
2022/01/28 16:11:19;;;;;;;5.78;1.77;;;;;;;;;;5003433;28;20052;-56
2022/01/28 16:18:57;;;;;;;4.32;1.10;;;;;;;;;;5001855;28;20109;-55
2022/01/28 16:21:23;;;;;;;7.47;3.13;;;;;;;;;;4982738;28;20038;-56
2022/01/28 16:23:48;;;;;;;5.10;1.80;;;;;;;;;;5000129;28;20465;-54
2022/01/28 16:26:14;;;;;;;8.75;1.90;;;;;;;;;;4999301;28;20030;-56
2022/01/28 16:28:39;;;;;;;3.95;1.40;;;;;;;;;;4985509;28;20037;-57
2022/01/28 16:31:05;;;;;;;2.35;0.93;;;;;;;;;;5002699;28;20042;-53